Terminal Aerodrome Forecast
Issued by NWS Tallahassee, FL

Home | Current Version | Previous Version | Text Only | Print | Product List | Glossary On
Versions: 1 2 3 4 5 6 7 8 9 10 11 12 13 14 15 16 17 18 19 20 21 22 23 24
000
FTUS42 KTAE 260500
TAFTLH
TAF
KTLH 260521Z 2606/2706 33011KT P6SM -RA OVC025
     FM261000 32009KT 6SM -RA BR SCT015 BKN050
      TEMPO 2610/2613 5SM BR BKN015
     FM261300 31011KT P6SM SKC=

USA.gov is the U.S. government's official web portal to all federal, state and local government web resources and services.